Pagina principale
METAR-TAF:

METAR-TAF

Aeroporti :

Antiochia, Turchia

latitudine: 36-21-46N, longitudine: 36-16-56E, altezza: 1950 m

Osservazione

Il bollettino è stato emesso 31 minuti fa, alle 12:50 UTC
Vento 3 kt da ovest/sud-ovest, variando fra sud e ovest/nord-ovest
Temperature 30°C
Umidità 25%
Pressione 1014 hPa
Visibilità 10 km o più
Poco nuvoloso ad un'altezza di 4000 ft
Nuvoloso ad un'altezza di 20000 ft

METAR: LTDA 261250Z 24003KT 190V300 9999 FEW040 BKN200 30/08 Q1014 NOSIG

Ora: 16:21 (13:21 UTC)

Previsione

Il bollettino è stato emesso 2 ore e 41 minuti fa, alle 10:40 UTC
Previsione valida dal 26 alle 12 UTC al 26 alle 21 UTC
Vento 2 kt da direzioni variabili
Visibilità 10 km o più
Nubi sparse ad un'altezza di 18000 ft

TAF: LTDA 261040Z 2612/2621 VRB02KT 9999 SCT180

Osservazioni e previsioni meteorologiche di più di 4000 aeroporti (messaggi METAR e TAF).

Le stazioni disponibili sono rappresentate dai dischi gialli e rossi sulla carta.

Puntare il mouse per vedere il nome della stazione.

Clicca sopra per visualizzare le osservazioni e previsioni meteorologiche.

Per cambiare la mappa : fare clic sui pulsanti verdi con una croce nera per ingrandire, il pulsante verde con un trattino per diminuire, o sulla freccia verde per le mappe adiacenti.


METAR-TAF: